Aguadilla, Puerto Rico
Current Conditions -  °F | °C
As of 10:50 AM on Monday 22 Dec 2014 (Local Time) from TJBQ Reporting Station
Scattered Clouds Scattered Clouds  
Wind Chill: 27°   Ceiling: Unl
Heat Index: 29°   Visibility: 10mi
Dew Point: 21°   Wind: 10mph
Humidity: 70%   Direction: 70°ENE
Pressure: 30.09"   Gusts: NA
Location:  18.49°N, 67.13°W
Report Text: TJBQ 221450Z 07009KT 10SM SCT023 SCT029 SCT036 27/21 A3009 RMK RWY 8 ATIS U
Loading
Personal Weather Stations






























Interactive Weather Map New forecast layout! Learn more

10-Day Weather Forecast

Advertisements
Track Severe Weather on mobile